Time;durP1;ratioP1;P1;durP2;ratioP2;P2;SDS_P1;SDS_P2;PMS_P1;PMS_P2;Temp;Humidity;BMP_temperature;BMP_pressure;BME280_temperature;BME280_humidity;BME280_pressure;Samples;Min_cycle;Max_cycle;Signal;HPM_P1;HPM_P2
2022/02/01 00:03:48;;;;;;;3.00;0.85;;;18.30;57.00;;;;;;6188688;23;20175;-85
2022/02/01 00:06:22;;;;;;;5.22;1.20;;;18.30;57.60;;;;;;6200011;23;20175;-85
2022/02/01 00:09:01;;;;;;;1.83;0.90;;;18.30;57.30;;;;;;6225139;23;20176;-84
2022/02/01 00:11:39;;;;;;;2.20;0.80;;;18.20;56.80;;;;;;6202311;23;20152;-85
2022/02/01 00:14:16;;;;;;;2.15;1.02;;;18.30;57.10;;;;;;6201676;23;20159;-85
2022/02/01 00:35:38;;;;;;;3.55;1.00;;;18.20;57.50;;;;;;6212417;23;20226;-84
2022/02/01 00:38:17;;;;;;;2.65;1.27;;;18.20;56.70;;;;;;6201122;23;20152;-84
2022/02/01 00:40:43;;;;;;;3.15;1.02;;;18.20;57.00;;;;;;6214437;23;20137;-86
2022/02/01 00:43:09;;;;;;;2.55;1.30;;;18.20;57.60;;;;;;6199624;23;20244;-85
2022/02/01 00:45:35;;;;;;;1.65;0.90;;;18.20;57.00;;;;;;6198751;23;20136;-84
2022/02/01 00:48:02;;;;;;;0.90;0.70;;;18.10;57.10;;;;;;6224203;23;20251;-84
2022/02/01 00:50:28;;;;;;;2.30;1.00;;;18.10;57.10;;;;;;6224146;23;20132;-84
2022/02/01 00:52:54;;;;;;;3.03;1.02;;;18.20;57.00;;;;;;6224348;23;20140;-84
2022/02/01 00:55:20;;;;;;;1.83;1.10;;;18.10;57.10;;;;;;6224945;23;20534;-84
2022/02/01 00:57:46;;;;;;;1.92;0.90;;;18.10;56.90;;;;;;6224380;23;20133;-85
2022/02/01 01:00:12;;;;;;;4.32;1.30;;;18.20;56.90;;;;;;6225986;22;20488;-84
2022/02/01 01:02:38;;;;;;;4.07;0.90;;;18.10;57.00;;;;;;6255644;22;20167;-84
2022/02/01 01:05:04;;;;;;;2.97;1.25;;;18.20;57.10;;;;;;6307932;22;20136;-84
2022/02/01 01:07:31;;;;;;;3.13;1.00;;;18.10;56.90;;;;;;6280702;22;20195;-85
2022/02/01 01:09:58;;;;;;;2.65;1.17;;;18.10;57.10;;;;;;6255466;22;20228;-85
2022/02/01 01:12:26;;;;;;;1.80;0.80;;;18.10;56.80;;;;;;6255157;22;20147;-84
2022/02/01 01:15:10;;;;;;;3.13;1.02;;;18.10;57.10;;;;;;6281051;22;20124;-84
2022/02/01 01:18:06;;;;;;;1.58;0.75;;;18.10;57.10;;;;;;6281329;22;20179;-85
2022/02/01 01:43:35;;;;;;;3.05;1.00;;;18.10;56.70;;;;;;6237580;22;20162;-84
2022/02/01 01:44:41;;;;;;;2.92;1.00;;;18.10;56.80;;;;;;6261131;22;20196;-84
2022/02/01 01:55:15;;;;;;;1.92;1.05;;;18.10;56.70;;;;;;6237405;22;20152;-84
2022/02/01 01:57:42;;;;;;;2.88;0.82;;;18.10;56.70;;;;;;6229178;22;20603;-85
2022/02/01 02:00:14;;;;;;;2.78;0.98;;;18.10;56.60;;;;;;6228563;22;20234;-84
2022/02/01 02:02:41;;;;;;;2.00;0.90;;;18.10;56.70;;;;;;6225186;22;20519;-84
2022/02/01 02:05:09;;;;;;;4.00;1.23;;;18.00;56.60;;;;;;6227840;23;20235;-85
2022/02/01 02:07:36;;;;;;;3.60;0.98;;;18.10;56.80;;;;;;6177862;23;20179;-84
2022/02/01 02:10:04;;;;;;;2.38;0.90;;;18.10;56.80;;;;;;6203032;22;20159;-84
2022/02/01 02:12:51;;;;;;;1.55;1.00;;;18.10;56.60;;;;;;6178326;22;20186;-85
2022/02/01 02:15:38;;;;;;;3.28;1.15;;;18.10;56.80;;;;;;6211781;22;20147;-85
2022/02/01 02:18:05;;;;;;;4.13;1.02;;;18.00;57.00;;;;;;6246207;22;20132;-85
2022/02/01 02:20:49;;;;;;;2.05;0.90;;;18.10;56.50;;;;;;6177295;23;20160;-84
2022/02/01 02:23:16;;;;;;;1.42;0.90;;;18.10;56.40;;;;;;6253724;22;20142;-84
2022/02/01 02:25:43;;;;;;;1.98;0.82;;;18.10;56.50;;;;;;6177970;22;20242;-84
2022/02/01 02:28:12;;;;;;;3.25;1.10;;;18.10;56.20;;;;;;6227321;23;20183;-84
2022/02/01 02:30:38;;;;;;;2.70;1.08;;;18.10;56.10;;;;;;6251330;22;20136;-85
2022/02/01 02:33:06;;;;;;;1.67;0.90;;;18.10;56.20;;;;;;6202582;22;20179;-84
2022/02/01 02:35:37;;;;;;;2.15;0.90;;;18.10;56.50;;;;;;6228470;22;20160;-84
2022/02/01 02:38:11;;;;;;;2.40;1.13;;;18.10;56.30;;;;;;6229416;22;20190;-85
2022/02/01 02:41:01;;;;;;;1.58;0.80;;;18.10;56.50;;;;;;6176779;22;20209;-84
2022/02/01 02:46:06;;;;;;;1.30;0.80;;;18.10;56.30;;;;;;6217755;23;20186;-84
2022/02/01 02:48:32;;;;;;;3.75;1.00;;;18.10;56.60;;;;;;6178134;23;20210;-85
2022/02/01 02:51:00;;;;;;;2.72;0.98;;;18.10;56.40;;;;;;6229234;23;20167;-85
2022/02/01 02:53:26;;;;;;;2.38;0.95;;;18.10;56.10;;;;;;6204628;22;20235;-85
2022/02/01 02:55:53;;;;;;;2.53;0.90;;;18.10;56.20;;;;;;6204209;23;20498;-85
2022/02/01 02:58:19;;;;;;;2.00;1.00;;;18.10;55.90;;;;;;6255848;22;20193;-85
2022/02/01 03:00:45;;;;;;;2.33;1.02;;;18.10;56.20;;;;;;6222879;23;20714;-84
2022/02/01 03:03:11;;;;;;;2.58;0.90;;;18.10;56.20;;;;;;6225112;23;20167;-84
2022/02/01 03:05:37;;;;;;;1.67;0.98;;;18.10;56.30;;;;;;6200135;23;20243;-84
2022/02/01 03:08:03;;;;;;;2.72;1.15;;;18.00;57.10;;;;;;6225393;23;20540;-85
2022/02/01 03:10:29;;;;;;;1.42;0.93;;;18.00;56.40;;;;;;6225081;23;20139;-84
2022/02/01 03:13:11;;;;;;;1.48;0.80;;;18.00;56.30;;;;;;6122926;23;20168;-85
2022/02/01 03:15:45;;;;;;;2.58;1.00;;;18.00;56.20;;;;;;6211858;23;20156;-84
2022/02/01 03:20:57;;;;;;;1.80;0.80;;;18.10;56.00;;;;;;6208749;23;20481;-85
2022/02/01 03:23:23;;;;;;;2.63;0.98;;;18.00;56.20;;;;;;6199944;23;20654;-84
2022/02/01 03:25:49;;;;;;;3.40;1.13;;;18.00;56.50;;;;;;6123181;23;20674;-85
2022/02/01 03:28:15;;;;;;;1.48;0.80;;;18.00;56.50;;;;;;6199911;23;20176;-85
2022/02/01 03:30:41;;;;;;;1.63;0.85;;;18.00;56.10;;;;;;6224713;23;20171;-84
2022/02/01 03:33:06;;;;;;;3.17;0.98;;;18.10;56.30;;;;;;6225016;23;20133;-84
2022/02/01 03:35:32;;;;;;;1.13;0.82;;;18.10;56.20;;;;;;6199498;23;20197;-84
2022/02/01 03:37:58;;;;;;;1.75;1.00;;;18.10;56.20;;;;;;6225235;23;20140;-85
2022/02/01 03:40:24;;;;;;;2.15;0.88;;;18.00;56.50;;;;;;6175351;23;20156;-84
2022/02/01 03:42:50;;;;;;;2.22;1.00;;;18.00;56.20;;;;;;6224731;23;20141;-84
2022/02/01 03:45:16;;;;;;;0.93;0.70;;;18.00;56.20;;;;;;6199688;23;20591;-85
2022/02/01 03:47:41;;;;;;;1.25;0.85;;;18.00;56.50;;;;;;6225497;23;20218;-84
2022/02/01 03:50:07;;;;;;;3.33;0.90;;;18.00;56.30;;;;;;6122718;23;20223;-84
2022/02/01 03:52:34;;;;;;;4.00;0.85;;;18.00;56.40;;;;;;6199651;23;20185;-84
2022/02/01 03:55:00;;;;;;;1.38;0.90;;;17.90;56.70;;;;;;6224732;23;20164;-84
2022/02/01 03:57:26;;;;;;;1.48;1.00;;;18.00;56.30;;;;;;6199448;23;20152;-84
2022/02/01 03:59:52;;;;;;;3.13;0.95;;;17.90;56.50;;;;;;6122454;23;20267;-84
2022/02/01 04:02:18;;;;;;;1.10;0.88;;;18.00;56.20;;;;;;6199913;23;20227;-84
2022/02/01 04:04:46;;;;;;;1.20;0.70;;;18.00;56.30;;;;;;6224747;23;20560;-85
2022/02/01 04:07:12;;;;;;;2.35;1.00;;;18.00;56.40;;;;;;6122756;23;20155;-84
2022/02/01 04:09:38;;;;;;;3.20;0.90;;;18.00;56.60;;;;;;6122722;23;20560;-84
2022/02/01 04:12:05;;;;;;;1.23;0.80;;;17.90;56.30;;;;;;6199440;23;20148;-84
2022/02/01 04:14:32;;;;;;;2.95;1.10;;;17.90;56.50;;;;;;6224680;23;20168;-84
2022/02/01 04:17:00;;;;;;;1.25;0.82;;;17.90;56.70;;;;;;6223370;23;20136;-85
2022/02/01 04:19:27;;;;;;;2.40;1.10;;;18.00;56.30;;;;;;6223911;23;20637;-84
2022/02/01 04:22:01;;;;;;;2.03;1.10;;;17.90;56.60;;;;;;6224718;23;20151;-85
2022/02/01 04:24:29;;;;;;;1.60;0.93;;;18.00;56.20;;;;;;6218338;23;20132;-85
2022/02/01 04:26:55;;;;;;;1.40;0.93;;;17.90;56.50;;;;;;6198964;23;20471;-84
2022/02/01 04:29:21;;;;;;;2.28;1.17;;;17.90;56.40;;;;;;6199269;23;20175;-84
2022/02/01 04:31:46;;;;;;;2.42;0.98;;;17.90;56.40;;;;;;6199167;23;20149;-84
2022/02/01 04:34:12;;;;;;;2.22;1.05;;;17.90;56.90;;;;;;6224883;23;20495;-84
2022/02/01 04:36:38;;;;;;;3.15;1.00;;;17.90;56.20;;;;;;6199665;23;20150;-85
2022/02/01 04:39:05;;;;;;;1.42;0.90;;;17.90;56.20;;;;;;6199622;23;20568;-85
2022/02/01 04:41:33;;;;;;;2.30;1.02;;;17.90;56.20;;;;;;6122342;23;20164;-85
2022/02/01 04:44:01;;;;;;;1.42;0.88;;;17.90;56.00;;;;;;6148758;23;20160;-84
2022/02/01 04:46:29;;;;;;;1.95;0.85;;;17.90;56.20;;;;;;6124682;23;20156;-84
2022/02/01 04:49:00;;;;;;;2.63;0.77;;;17.90;56.10;;;;;;6124081;23;20278;-84
2022/02/01 04:51:29;;;;;;;2.20;0.88;;;17.90;55.90;;;;;;6126513;23;20278;-85
2022/02/01 04:53:57;;;;;;;1.88;0.80;;;18.00;56.00;;;;;;6124981;23;20159;-85
2022/02/01 04:56:25;;;;;;;1.42;0.85;;;17.90;55.80;;;;;;6148455;23;20206;-85
2022/02/01 04:58:52;;;;;;;1.52;0.85;;;17.90;56.20;;;;;;6148573;23;20599;-84
2022/02/01 05:01:23;;;;;;;2.15;1.02;;;17.80;56.00;;;;;;6132145;23;20203;-85
2022/02/01 05:03:51;;;;;;;1.70;0.80;;;17.90;56.10;;;;;;6200645;23;20164;-85
2022/02/01 05:06:18;;;;;;;1.83;1.08;;;17.90;56.00;;;;;;6172992;23;20168;-85
2022/02/01 05:08:45;;;;;;;2.35;0.98;;;17.90;56.20;;;;;;6198315;23;20191;-84
2022/02/01 05:11:10;;;;;;;1.80;1.10;;;17.90;56.00;;;;;;6172560;23;20163;-85
2022/02/01 05:14:05;;;;;;;1.50;0.98;;;17.90;56.00;;;;;;6224208;23;20152;-84
2022/02/01 05:16:34;;;;;;;2.28;0.88;;;17.80;56.30;;;;;;6185753;23;20563;-85
2022/02/01 05:19:05;;;;;;;1.15;0.90;;;17.80;56.10;;;;;;6215258;23;20591;-85
2022/02/01 05:21:34;;;;;;;1.38;0.88;;;17.80;56.60;;;;;;6221257;23;20179;-85
2022/02/01 05:24:02;;;;;;;1.02;0.80;;;17.80;56.60;;;;;;6221343;23;20554;-84
2022/02/01 05:26:28;;;;;;;3.55;1.10;;;17.80;56.00;;;;;;6247154;22;20139;-84
2022/02/01 05:28:53;;;;;;;1.33;1.00;;;17.80;55.70;;;;;;6249330;22;20167;-85
2022/02/01 05:31:21;;;;;;;1.55;0.80;;;17.90;56.10;;;;;;6249626;22;20146;-85
2022/02/01 05:33:47;;;;;;;2.80;0.95;;;17.90;55.40;;;;;;6223907;23;20239;-84
2022/02/01 05:36:14;;;;;;;2.75;0.80;;;17.90;55.70;;;;;;6199429;23;20186;-85
2022/02/01 05:38:40;;;;;;;2.10;1.00;;;17.90;55.30;;;;;;6172800;23;20186;-84
2022/02/01 05:41:10;;;;;;;1.85;0.88;;;18.00;55.80;;;;;;6222988;23;20230;-84
2022/02/01 05:43:42;;;;;;;1.45;0.82;;;18.00;55.20;;;;;;6196443;23;20180;-85
2022/02/01 05:46:10;;;;;;;1.60;0.88;;;18.00;55.50;;;;;;6219498;23;20596;-84
2022/02/01 05:48:38;;;;;;;1.58;0.95;;;18.00;55.20;;;;;;6222895;23;20627;-85
2022/02/01 05:51:06;;;;;;;2.83;0.98;;;18.00;55.30;;;;;;6172831;23;20282;-85
2022/02/01 05:53:34;;;;;;;1.60;0.80;;;18.00;54.90;;;;;;6221564;23;20156;-85
2022/02/01 05:56:01;;;;;;;1.45;0.93;;;18.00;55.00;;;;;;6172866;23;20157;-85
2022/02/01 05:58:26;;;;;;;2.35;0.95;;;18.10;54.60;;;;;;6222751;23;20156;-85
2022/02/01 06:00:53;;;;;;;3.38;0.95;;;18.10;54.60;;;;;;6195013;23;20590;-85
2022/02/01 06:03:19;;;;;;;2.53;0.93;;;18.10;54.50;;;;;;6147600;23;20472;-85
2022/02/01 06:05:45;;;;;;;1.35;0.80;;;18.10;54.40;;;;;;6198735;23;20202;-85
2022/02/01 06:08:11;;;;;;;1.45;0.85;;;18.10;54.10;;;;;;6173468;23;20290;-87
2022/02/01 06:10:38;;;;;;;1.50;0.90;;;18.10;54.80;;;;;;6223186;23;20132;-86
2022/02/01 06:13:03;;;;;;;2.55;1.00;;;18.10;54.20;;;;;;6173256;23;20151;-84
2022/02/01 06:15:29;;;;;;;1.45;0.70;;;18.10;54.60;;;;;;6198449;23;20144;-84
2022/02/01 06:17:56;;;;;;;1.23;0.80;;;18.20;54.10;;;;;;6174039;23;20152;-85
2022/02/01 06:20:25;;;;;;;1.95;0.93;;;18.20;53.80;;;;;;6122858;23;20183;-85
2022/02/01 06:22:51;;;;;;;1.70;1.02;;;18.20;53.70;;;;;;6198371;23;20160;-85
2022/02/01 06:25:26;;;;;;;1.20;0.90;;;18.10;53.60;;;;;;6225857;23;20465;-85
2022/02/01 06:27:52;;;;;;;0.88;0.73;;;18.20;53.60;;;;;;6202561;23;20175;-84
2022/02/01 06:30:18;;;;;;;1.25;0.90;;;18.20;53.90;;;;;;6225213;23;20155;-84
2022/02/01 06:32:44;;;;;;;2.90;0.90;;;18.20;53.70;;;;;;6123090;23;20179;-84
2022/02/01 06:35:09;;;;;;;0.93;0.70;;;18.20;53.30;;;;;;6175150;23;20613;-84
2022/02/01 06:37:35;;;;;;;2.65;1.10;;;18.20;54.10;;;;;;6200552;23;20132;-85
2022/02/01 06:40:01;;;;;;;0.90;0.80;;;18.20;53.40;;;;;;6201087;23;20212;-85
2022/02/01 06:42:27;;;;;;;0.90;0.60;;;18.20;53.50;;;;;;6123056;23;20128;-85
2022/02/01 06:44:53;;;;;;;1.38;0.88;;;18.20;53.40;;;;;;6225659;23;20132;-85
2022/02/01 06:47:19;;;;;;;1.58;0.70;;;18.20;53.60;;;;;;6225297;23;20143;-85
2022/02/01 06:49:46;;;;;;;1.33;0.80;;;18.20;53.90;;;;;;6200307;23;20286;-86
2022/02/01 06:52:12;;;;;;;1.10;0.73;;;18.20;53.50;;;;;;6122931;23;20202;-83
2022/02/01 06:54:40;;;;;;;1.02;0.80;;;18.20;54.10;;;;;;6225151;23;20567;-84
2022/02/01 06:57:05;;;;;;;1.00;0.70;;;18.20;53.40;;;;;;6198660;23;20132;-84
2022/02/01 06:59:31;;;;;;;1.00;0.70;;;18.30;54.20;;;;;;6200110;23;20237;-85
2022/02/01 07:01:58;;;;;;;1.33;0.80;;;18.20;53.70;;;;;;6199923;23;20661;-87
2022/02/01 07:04:24;;;;;;;1.77;0.93;;;18.20;53.10;;;;;;6126538;23;20144;-85
2022/02/01 07:06:50;;;;;;;0.90;0.68;;;18.30;53.50;;;;;;6179774;23;20218;-85
2022/02/01 07:09:22;;;;;;;1.10;0.75;;;18.20;52.80;;;;;;6184043;23;20259;-85
2022/02/01 07:11:49;;;;;;;0.73;0.70;;;18.30;52.90;;;;;;6180924;23;20243;-84
2022/02/01 07:14:16;;;;;;;0.70;0.68;;;18.20;53.30;;;;;;6181975;23;20152;-85
2022/02/01 07:16:41;;;;;;;2.05;0.82;;;18.20;53.40;;;;;;6233820;23;20133;-86
2022/02/01 07:19:12;;;;;;;0.60;0.60;;;18.20;53.30;;;;;;6207049;23;20162;-86
2022/02/01 07:21:37;;;;;;;0.65;0.50;;;18.30;53.50;;;;;;6181568;23;20167;-86
2022/02/01 07:24:06;;;;;;;1.15;0.70;;;18.30;53.80;;;;;;6207849;23;20580;-85
2022/02/01 07:26:32;;;;;;;1.00;0.70;;;18.20;53.50;;;;;;6183952;23;20640;-86
2022/02/01 07:28:58;;;;;;;1.00;0.70;;;18.20;53.50;;;;;;6205823;23;20168;-84
2022/02/01 07:31:23;;;;;;;1.20;0.80;;;18.30;52.30;;;;;;6206778;23;20213;-85
2022/02/01 07:33:52;;;;;;;1.25;0.65;;;18.30;53.00;;;;;;6233471;23;20132;-87
2022/02/01 07:36:20;;;;;;;1.05;0.70;;;18.30;52.40;;;;;;6208568;23;20132;-85
2022/02/01 07:38:46;;;;;;;1.25;0.80;;;18.30;52.30;;;;;;6206983;23;20596;-85
2022/02/01 07:41:13;;;;;;;1.45;0.60;;;18.40;51.70;;;;;;6231959;23;20143;-86
2022/02/01 07:43:39;;;;;;;0.93;0.77;;;18.40;51.80;;;;;;6206755;23;20147;-86
2022/02/01 07:46:09;;;;;;;0.98;0.70;;;18.40;52.40;;;;;;6206790;23;20141;-84
2022/02/01 07:48:37;;;;;;;1.48;0.80;;;18.40;52.10;;;;;;6159523;23;20180;-84
2022/02/01 07:51:03;;;;;;;0.90;0.80;;;18.40;52.00;;;;;;6131036;23;20145;-84
2022/02/01 07:53:30;;;;;;;2.20;0.88;;;18.40;51.90;;;;;;6206957;23;20574;-86
2022/02/01 07:55:59;;;;;;;1.58;1.00;;;18.40;52.20;;;;;;6231485;23;20132;-85
2022/02/01 07:58:25;;;;;;;0.90;0.80;;;18.40;51.60;;;;;;6160120;23;20158;-88
2022/02/01 08:00:51;;;;;;;2.33;1.15;;;18.40;52.10;;;;;;6207336;23;20196;-86
2022/02/01 08:03:21;;;;;;;1.48;0.70;;;18.30;52.00;;;;;;6204097;23;20767;-85
2022/02/01 08:05:50;;;;;;;1.98;0.90;;;18.40;52.10;;;;;;6205133;23;20156;-87
2022/02/01 08:08:21;;;;;;;1.33;1.00;;;18.40;51.40;;;;;;6178479;23;20184;-86
2022/02/01 08:10:54;;;;;;;0.85;0.70;;;18.40;51.60;;;;;;6200337;23;20179;-86
2022/02/01 08:14:08;;;;;;;0.82;0.82;;;18.40;51.70;;;;;;6147778;23;20242;-86
2022/02/01 08:16:36;;;;;;;1.52;0.75;;;18.50;51.20;;;;;;6145161;23;20171;-86
2022/02/01 08:19:09;;;;;;;1.40;0.70;;;18.50;51.80;;;;;;6146763;23;20164;-85
2022/02/01 08:21:44;;;;;;;1.60;0.80;;;18.50;52.30;;;;;;6149556;23;20152;-86
2022/02/01 08:24:13;;;;;;;1.38;0.77;;;18.60;51.00;;;;;;6156111;23;20163;-86
2022/02/01 08:26:42;;;;;;;1.35;0.82;;;18.50;50.80;;;;;;6150859;23;20171;-86
2022/02/01 08:29:10;;;;;;;1.15;0.88;;;18.60;49.20;;;;;;6175588;23;20263;-87
2022/02/01 08:31:39;;;;;;;1.40;0.77;;;18.60;48.70;;;;;;6150664;23;20160;-85
2022/02/01 08:34:08;;;;;;;2.60;1.30;;;18.60;50.70;;;;;;6174975;23;20544;-85
2022/02/01 08:36:36;;;;;;;1.92;0.80;;;18.60;50.10;;;;;;6150750;23;20183;-85
2022/02/01 08:39:06;;;;;;;1.85;0.95;;;18.60;51.10;;;;;;6178467;23;20183;-86
2022/02/01 08:41:33;;;;;;;1.48;0.93;;;18.60;50.20;;;;;;6202678;23;20236;-84
2022/02/01 08:44:03;;;;;;;1.70;0.80;;;18.70;51.00;;;;;;6201784;23;20188;-85
2022/02/01 08:46:28;;;;;;;2.03;0.90;;;18.60;51.90;;;;;;6173146;23;20196;-84
2022/02/01 08:48:57;;;;;;;0.68;0.65;;;18.60;51.60;;;;;;6174284;23;20263;-84
2022/02/01 08:51:27;;;;;;;0.98;0.80;;;18.60;51.00;;;;;;6146915;23;20266;-85
2022/02/01 08:53:58;;;;;;;1.35;0.88;;;18.60;51.50;;;;;;6170578;23;20164;-84
2022/02/01 08:59:07;;;;;;;1.42;0.90;;;18.60;51.90;;;;;;6189485;23;20156;-85
2022/02/01 09:01:34;;;;;;;1.58;0.93;;;18.60;51.90;;;;;;6158701;23;20261;-84
2022/02/01 09:03:59;;;;;;;3.47;0.90;;;18.60;51.70;;;;;;6249524;22;20243;-86
2022/02/01 09:06:25;;;;;;;1.92;0.90;;;18.60;51.90;;;;;;6252297;22;20132;-85
2022/02/01 09:08:54;;;;;;;4.40;1.05;;;18.60;51.10;;;;;;6251705;22;20537;-84
2022/02/01 09:11:20;;;;;;;1.35;0.80;;;18.60;52.10;;;;;;6224552;23;20604;-86
2022/02/01 09:13:47;;;;;;;3.40;0.90;;;18.60;51.30;;;;;;6252132;22;20139;-85
2022/02/01 09:16:20;;;;;;;1.55;1.00;;;18.60;51.70;;;;;;6225346;23;20136;-85
2022/02/01 09:18:46;;;;;;;3.10;1.17;;;18.70;50.80;;;;;;6199808;23;20487;-86
2022/02/01 09:21:13;;;;;;;1.48;0.88;;;18.60;51.50;;;;;;6124000;23;20140;-85
2022/02/01 09:23:39;;;;;;;3.35;0.93;;;18.70;50.80;;;;;;6224134;23;20178;-86
2022/02/01 09:26:04;;;;;;;4.63;0.95;;;18.70;51.30;;;;;;6225295;23;20487;-86
2022/02/01 09:28:31;;;;;;;3.38;1.15;;;18.70;51.70;;;;;;6200399;23;20183;-85
2022/02/01 09:30:58;;;;;;;5.60;1.00;;;18.70;52.60;;;;;;6200197;23;20144;-86
2022/02/01 09:33:23;;;;;;;3.17;0.90;;;18.70;51.00;;;;;;6249219;22;20178;-85
2022/02/01 09:35:50;;;;;;;2.72;0.90;;;18.70;51.50;;;;;;6224581;23;20584;-85
2022/02/01 09:38:18;;;;;;;1.77;1.05;;;18.70;51.60;;;;;;6224717;23;20166;-86
2022/02/01 09:40:44;;;;;;;1.73;0.93;;;18.70;51.00;;;;;;6224646;23;20159;-86
2022/02/01 09:43:10;;;;;;;1.52;1.02;;;18.70;52.20;;;;;;6224474;23;20624;-85
2022/02/01 09:45:36;;;;;;;2.60;0.98;;;18.70;51.60;;;;;;6224960;23;20159;-86
2022/02/01 09:48:03;;;;;;;2.70;1.30;;;18.60;51.60;;;;;;6225201;23;20680;-85
2022/02/01 09:50:28;;;;;;;2.03;1.02;;;18.70;52.20;;;;;;6225111;23;20148;-85
2022/02/01 09:52:54;;;;;;;2.35;0.90;;;18.70;51.20;;;;;;6225125;23;20133;-85
2022/02/01 09:55:21;;;;;;;2.75;0.95;;;18.70;51.60;;;;;;6225524;23;20215;-85
2022/02/01 09:57:51;;;;;;;4.20;1.20;;;18.70;51.90;;;;;;6122980;23;20583;-85
2022/02/01 10:00:21;;;;;;;3.88;1.20;;;18.70;51.30;;;;;;6229709;22;20136;-87
2022/02/01 10:02:47;;;;;;;2.08;0.95;;;18.80;51.90;;;;;;6258581;22;20563;-86
2022/02/01 10:05:15;;;;;;;3.53;1.00;;;18.80;51.50;;;;;;6258890;22;20223;-85
2022/02/01 10:07:50;;;;;;;3.20;0.80;;;18.70;51.70;;;;;;6282360;22;20132;-85
2022/02/01 10:10:16;;;;;;;2.17;1.08;;;18.70;51.60;;;;;;6282323;22;20138;-85
2022/02/01 10:12:43;;;;;;;2.45;0.90;;;18.70;52.60;;;;;;6256507;22;20140;-85
2022/02/01 10:15:26;;;;;;;1.63;1.10;;;18.70;52.00;;;;;;6282401;22;20155;-85
2022/02/01 10:18:00;;;;;;;2.35;0.82;;;18.70;52.70;;;;;;6257218;22;20155;-85
2022/02/01 10:20:38;;;;;;;2.83;0.95;;;18.80;51.60;;;;;;6285186;22;20128;-85
2022/02/01 10:23:24;;;;;;;1.83;0.80;;;18.80;51.50;;;;;;6256351;22;20147;-85
2022/02/01 10:26:01;;;;;;;1.58;0.90;;;18.80;51.20;;;;;;6256993;22;20151;-85
2022/02/01 10:28:36;;;;;;;5.35;1.15;;;18.80;52.30;;;;;;6257191;22;20210;-84
2022/02/01 10:31:25;;;;;;;2.85;1.00;;;18.80;52.60;;;;;;6282137;22;20139;-85
2022/02/01 10:34:14;;;;;;;2.83;1.20;;;18.80;51.00;;;;;;6257946;22;20141;-86
2022/02/01 10:36:41;;;;;;;3.72;1.23;;;18.80;50.40;;;;;;6244798;22;20609;-85
2022/02/01 10:39:21;;;;;;;4.35;1.13;;;18.90;51.40;;;;;;6259089;22;20140;-85
2022/02/01 10:42:01;;;;;;;1.65;0.90;;;18.90;51.40;;;;;;6257410;22;20151;-86
2022/02/01 10:44:42;;;;;;;3.28;1.10;;;18.90;51.00;;;;;;6257841;22;20549;-85
2022/02/01 10:47:11;;;;;;;2.35;0.90;;;18.90;50.90;;;;;;6257900;22;20140;-84
2022/02/01 10:49:41;;;;;;;1.92;1.17;;;18.90;50.60;;;;;;6283003;22;20160;-84
2022/02/01 10:52:09;;;;;;;2.42;1.13;;;19.00;52.10;;;;;;6256907;22;20156;-85
2022/02/01 10:54:36;;;;;;;2.63;1.10;;;18.90;51.60;;;;;;6283358;22;20158;-84
2022/02/01 10:57:06;;;;;;;3.78;0.98;;;18.90;51.10;;;;;;6310224;22;20132;-85
2022/02/01 10:59:33;;;;;;;2.20;1.08;;;18.90;52.10;;;;;;6207452;22;20163;-85
2022/02/01 11:02:01;;;;;;;3.15;1.20;;;19.00;50.70;;;;;;6283568;22;20195;-85
2022/02/01 11:04:29;;;;;;;2.28;1.00;;;19.00;51.30;;;;;;6258058;22;20156;-85
2022/02/01 11:06:55;;;;;;;4.05;1.20;;;18.90;51.20;;;;;;6258878;22;20148;-86
2022/02/01 11:09:22;;;;;;;2.67;1.40;;;18.90;51.30;;;;;;6261028;22;20175;-87
2022/02/01 11:11:55;;;;;;;1.48;0.80;;;18.90;51.40;;;;;;6284733;22;20133;-85
2022/02/01 11:14:24;;;;;;;2.50;1.15;;;19.00;51.50;;;;;;6233644;22;20567;-84
2022/02/01 11:17:09;;;;;;;1.80;1.00;;;18.90;51.40;;;;;;6259256;22;20139;-83
2022/02/01 11:19:52;;;;;;;2.92;0.80;;;18.90;52.10;;;;;;6282319;22;20394;-85
2022/02/01 11:22:26;;;;;;;3.00;0.90;;;18.90;51.70;;;;;;6285006;22;20132;-86
2022/02/01 11:24:57;;;;;;;1.35;0.80;;;18.80;52.60;;;;;;6284213;22;20134;-86
2022/02/01 11:27:38;;;;;;;4.32;0.90;;;18.70;51.90;;;;;;6284912;22;20139;-86
2022/02/01 11:30:11;;;;;;;1.23;0.80;;;18.90;52.10;;;;;;6212596;22;20163;-85
2022/02/01 11:32:39;;;;;;;1.98;1.00;;;18.80;52.10;;;;;;6260273;22;20213;-85
2022/02/01 11:35:09;;;;;;;2.33;1.00;;;18.90;51.20;;;;;;6261482;22;20607;-85
2022/02/01 11:37:48;;;;;;;2.30;1.17;;;19.00;50.30;;;;;;6257164;22;20175;-85
2022/02/01 11:40:15;;;;;;;2.45;1.20;;;18.90;51.70;;;;;;6205932;22;20209;-85
2022/02/01 11:42:52;;;;;;;3.17;1.13;;;19.00;51.40;;;;;;6234047;22;20499;-86
2022/02/01 11:45:25;;;;;;;1.92;0.93;;;19.00;51.20;;;;;;6283493;22;20190;-84
2022/02/01 11:47:51;;;;;;;3.97;1.00;;;18.90;51.10;;;;;;6259354;22;20160;-83
2022/02/01 11:50:20;;;;;;;1.48;1.00;;;18.90;51.90;;;;;;6261233;22;20129;-85
2022/02/01 11:52:51;;;;;;;1.90;0.90;;;18.90;51.90;;;;;;6258452;22;20131;-85
2022/02/01 11:55:24;;;;;;;3.65;1.13;;;18.90;51.60;;;;;;6207568;22;20156;-85
2022/02/01 11:57:59;;;;;;;3.97;1.10;;;18.80;52.40;;;;;;6209136;22;20234;-84
2022/02/01 12:00:26;;;;;;;2.80;1.10;;;18.80;51.80;;;;;;6233155;22;20174;-84
2022/02/01 12:02:58;;;;;;;3.10;0.98;;;18.80;51.90;;;;;;6257559;22;20180;-86
2022/02/01 12:05:42;;;;;;;1.98;0.95;;;18.80;51.90;;;;;;6205859;22;20591;-85
2022/02/01 12:08:14;;;;;;;2.38;1.00;;;18.90;51.70;;;;;;6257727;22;20182;-85
2022/02/01 12:10:43;;;;;;;1.40;0.85;;;18.90;51.90;;;;;;6231377;22;20156;-85
2022/02/01 12:13:11;;;;;;;1.67;0.90;;;18.90;51.70;;;;;;6231503;22;20231;-86
2022/02/01 12:15:39;;;;;;;2.97;1.00;;;18.90;51.40;;;;;;6232022;22;20227;-86
2022/02/01 12:18:40;;;;;;;1.23;0.90;;;19.00;50.30;;;;;;6232300;22;20147;-85
2022/02/01 12:21:30;;;;;;;3.65;1.20;;;19.00;51.00;;;;;;6260409;22;20171;-86
2022/02/01 12:23:57;;;;;;;5.75;1.25;;;19.00;50.80;;;;;;6238738;22;20152;-86
2022/02/01 12:26:24;;;;;;;6.72;1.00;;;19.00;50.70;;;;;;6257858;22;20624;-86
2022/02/01 12:28:53;;;;;;;1.80;1.00;;;19.00;50.70;;;;;;6282643;22;20159;-85
2022/02/01 12:31:26;;;;;;;2.40;1.10;;;19.00;50.30;;;;;;6233856;22;20144;-85
2022/02/01 12:33:59;;;;;;;3.95;1.00;;;19.10;50.30;;;;;;6206534;22;20148;-86
2022/02/01 12:36:28;;;;;;;5.38;1.00;;;19.10;51.20;;;;;;6256279;22;20175;-86
2022/02/01 12:39:15;;;;;;;3.45;1.15;;;19.00;51.70;;;;;;6257799;22;20136;-85
2022/02/01 12:41:43;;;;;;;2.80;0.80;;;19.00;50.90;;;;;;6257079;22;20144;-86
2022/02/01 12:46:57;;;;;;;2.70;1.17;;;19.00;50.70;;;;;;6243643;22;20148;-85
2022/02/01 12:49:41;;;;;;;2.13;1.02;;;19.00;50.60;;;;;;6255378;22;20507;-85
2022/02/01 12:52:24;;;;;;;4.07;1.00;;;19.00;51.00;;;;;;6256166;22;20197;-85
2022/02/01 12:54:59;;;;;;;2.10;1.10;;;19.10;50.60;;;;;;6310064;22;20136;-85
2022/02/01 12:57:27;;;;;;;2.15;1.08;;;19.10;50.80;;;;;;6260837;22;20132;-85
2022/02/01 13:00:00;;;;;;;1.55;0.85;;;19.00;51.20;;;;;;6235090;22;20140;-85
2022/02/01 13:02:29;;;;;;;1.27;0.88;;;19.10;50.80;;;;;;6210996;22;20195;-84
2022/02/01 13:05:05;;;;;;;2.15;0.85;;;19.10;50.80;;;;;;6234990;22;20156;-85
2022/02/01 13:07:55;;;;;;;0.82;0.70;;;19.00;50.70;;;;;;6261815;22;20151;-85
2022/02/01 13:16:35;;;;;;;2.40;1.00;;;19.00;51.10;;;;;;6226496;22;20167;-85
2022/02/01 13:21:57;;;;;;;1.98;1.08;;;19.00;50.60;;;;;;6243136;22;20152;-85
2022/02/01 13:24:30;;;;;;;3.17;0.80;;;19.00;50.30;;;;;;6231667;22;20581;-86
2022/02/01 13:26:57;;;;;;;2.17;1.00;;;19.00;50.70;;;;;;6233658;22;20152;-86
2022/02/01 13:29:24;;;;;;;2.50;1.02;;;18.90;51.10;;;;;;6232370;22;20175;-85
2022/02/01 13:31:53;;;;;;;2.80;0.90;;;19.00;50.50;;;;;;6210044;22;20156;-85
2022/02/01 13:34:30;;;;;;;1.13;1.02;;;18.90;51.40;;;;;;6208396;22;20144;-85
2022/02/01 13:36:57;;;;;;;1.08;0.90;;;18.90;51.10;;;;;;6208848;22;20292;-86
2022/02/01 13:39:33;;;;;;;1.20;1.10;;;19.00;50.90;;;;;;6233529;22;20167;-84
2022/02/01 13:42:03;;;;;;;0.90;0.80;;;18.90;51.00;;;;;;6258407;22;20128;-86
2022/02/01 13:44:31;;;;;;;1.42;0.80;;;18.90;50.50;;;;;;6257775;22;20584;-86
2022/02/01 13:47:04;;;;;;;1.23;0.70;;;18.90;50.90;;;;;;6283701;22;20129;-86
2022/02/01 13:49:30;;;;;;;3.55;1.10;;;18.90;51.40;;;;;;6232354;22;20631;-86
2022/02/01 13:51:56;;;;;;;3.50;0.93;;;18.90;50.80;;;;;;6257883;22;20140;-86
2022/02/01 13:54:23;;;;;;;1.40;1.00;;;18.90;50.70;;;;;;6283845;22;20136;-86
2022/02/01 13:56:50;;;;;;;1.27;0.85;;;18.90;50.30;;;;;;6234007;22;20136;-85
2022/02/01 13:59:19;;;;;;;2.03;1.20;;;19.00;50.10;;;;;;6259553;22;20132;-86
2022/02/01 14:01:45;;;;;;;1.10;0.90;;;19.00;51.20;;;;;;6259396;22;20541;-87
2022/02/01 14:04:19;;;;;;;1.20;0.80;;;18.90;50.70;;;;;;6256969;22;20158;-86
2022/02/01 14:06:52;;;;;;;1.15;0.90;;;18.90;51.30;;;;;;6257993;22;20610;-86
2022/02/01 14:22:32;;;;;;;0.80;0.80;;;18.80;51.30;;;;;;6309838;22;20439;-85
2022/02/01 14:23:41;;;;;;;1.17;0.85;;;18.90;50.90;;;;;;6268932;22;20143;-86